sensor_id;sensor_type;location;lat;lon;timestamp;pressure;altitude;pressure_sealevel;temperature;humidity
38038;BME280;23843;51.320;12.340;2024-01-30T00:02:08;101693.84;;;5.81;55.61
38038;BME280;23843;51.320;12.340;2024-01-30T00:04:33;101695.88;;;5.79;55.13
38038;BME280;23843;51.320;12.340;2024-01-30T00:06:59;101694.16;;;5.78;55.09
38038;BME280;23843;51.320;12.340;2024-01-30T00:09:24;101702.63;;;5.76;55.86
38038;BME280;23843;51.320;12.340;2024-01-30T00:11:51;101697.13;;;5.76;55.52
38038;BME280;23843;51.320;12.340;2024-01-30T00:14:16;101690.75;;;5.76;56.22
38038;BME280;23843;51.320;12.340;2024-01-30T00:16:42;101692.63;;;5.75;55.16
38038;BME280;23843;51.320;12.340;2024-01-30T00:19:07;101691.75;;;5.75;55.81
38038;BME280;23843;51.320;12.340;2024-01-30T00:21:33;101688.16;;;5.74;55.76
38038;BME280;23843;51.320;12.340;2024-01-30T00:23:58;101688.16;;;5.74;55.52
38038;BME280;23843;51.320;12.340;2024-01-30T00:26:24;101685.38;;;5.74;55.87
38038;BME280;23843;51.320;12.340;2024-01-30T00:28:51;101688.16;;;5.74;56.29
38038;BME280;23843;51.320;12.340;2024-01-30T00:31:16;101689.00;;;5.75;55.73
38038;BME280;23843;51.320;12.340;2024-01-30T00:33:42;101690.75;;;5.76;56.21
38038;BME280;23843;51.320;12.340;2024-01-30T00:36:08;101684.34;;;5.75;55.72
38038;BME280;23843;51.320;12.340;2024-01-30T00:38:34;101689.72;;;5.77;55.51
38038;BME280;23843;51.320;12.340;2024-01-30T00:40:59;101682.25;;;5.77;55.82
38038;BME280;23843;51.320;12.340;2024-01-30T00:43:25;101679.34;;;5.79;55.63
38038;BME280;23843;51.320;12.340;2024-01-30T00:45:52;101678.16;;;5.81;56.13
38038;BME280;23843;51.320;12.340;2024-01-30T00:48:17;101673.34;;;5.83;55.52
38038;BME280;23843;51.320;12.340;2024-01-30T00:50:43;101671.44;;;5.84;56.15
38038;BME280;23843;51.320;12.340;2024-01-30T00:53:08;101673.13;;;5.85;55.90
38038;BME280;23843;51.320;12.340;2024-01-30T00:55:33;101671.25;;;5.85;55.97
38038;BME280;23843;51.320;12.340;2024-01-30T00:57:59;101670.22;;;5.86;55.93
38038;BME280;23843;51.320;12.340;2024-01-30T01:00:24;101673.84;;;5.87;55.80
38038;BME280;23843;51.320;12.340;2024-01-30T01:02:51;101669.22;;;5.88;55.86
38038;BME280;23843;51.320;12.340;2024-01-30T01:05:17;101671.81;;;5.89;55.19
38038;BME280;23843;51.320;12.340;2024-01-30T01:07:42;101668.19;;;5.89;55.24
38038;BME280;23843;51.320;12.340;2024-01-30T01:10:08;101674.19;;;5.92;55.95
38038;BME280;23843;51.320;12.340;2024-01-30T01:12:33;101675.06;;;5.93;55.72
38038;BME280;23843;51.320;12.340;2024-01-30T01:14:59;101669.38;;;5.94;55.67
38038;BME280;23843;51.320;12.340;2024-01-30T01:17:24;101667.50;;;5.95;55.98
38038;BME280;23843;51.320;12.340;2024-01-30T01:19:51;101670.09;;;5.96;56.17
38038;BME280;23843;51.320;12.340;2024-01-30T01:22:16;101662.66;;;5.97;55.58
38038;BME280;23843;51.320;12.340;2024-01-30T01:24:42;101653.38;;;5.98;55.63
38038;BME280;23843;51.320;12.340;2024-01-30T01:27:07;101655.25;;;5.97;55.65
38038;BME280;23843;51.320;12.340;2024-01-30T01:29:32;101661.44;;;5.99;55.34
38038;BME280;23843;51.320;12.340;2024-01-30T01:31:58;101644.22;;;5.97;55.24
38038;BME280;23843;51.320;12.340;2024-01-30T01:34:24;101647.16;;;5.96;55.89
38038;BME280;23843;51.320;12.340;2024-01-30T01:36:51;101643.38;;;5.97;56.10
38038;BME280;23843;51.320;12.340;2024-01-30T01:39:16;101652.66;;;5.96;55.96
38038;BME280;23843;51.320;12.340;2024-01-30T01:41:42;101646.13;;;5.97;55.48
38038;BME280;23843;51.320;12.340;2024-01-30T01:44:07;101645.25;;;5.96;56.07
38038;BME280;23843;51.320;12.340;2024-01-30T01:46:33;101647.00;;;5.97;56.08
38038;BME280;23843;51.320;12.340;2024-01-30T01:49:01;101645.94;;;5.98;55.61
38038;BME280;23843;51.320;12.340;2024-01-30T01:51:27;101648.50;;;6.00;55.66
38038;BME280;23843;51.320;12.340;2024-01-30T01:53:55;101639.56;;;5.98;55.91
38038;BME280;23843;51.320;12.340;2024-01-30T01:56:21;101642.13;;;5.99;55.98
38038;BME280;23843;51.320;12.340;2024-01-30T01:58:47;101638.34;;;6.00;56.18
38038;BME280;23843;51.320;12.340;2024-01-30T02:01:16;101653.69;;;6.03;56.03
38038;BME280;23843;51.320;12.340;2024-01-30T02:03:44;101647.16;;;6.04;55.81
38038;BME280;23843;51.320;12.340;2024-01-30T02:06:10;101648.72;;;6.06;55.57
38038;BME280;23843;51.320;12.340;2024-01-30T02:08:37;101641.97;;;6.09;55.53
38038;BME280;23843;51.320;12.340;2024-01-30T02:11:04;101644.56;;;6.10;55.52
38038;BME280;23843;51.320;12.340;2024-01-30T02:13:30;101641.63;;;6.12;56.15
38038;BME280;23843;51.320;12.340;2024-01-30T02:15:55;101646.97;;;6.13;55.21
38038;BME280;23843;51.320;12.340;2024-01-30T02:18:21;101638.69;;;6.13;54.93
38038;BME280;23843;51.320;12.340;2024-01-30T02:20:46;101642.28;;;6.14;56.10
38038;BME280;23843;51.320;12.340;2024-01-30T02:23:15;101642.50;;;6.12;55.21
38038;BME280;23843;51.320;12.340;2024-01-30T02:25:42;101646.78;;;6.15;56.03
38038;BME280;23843;51.320;12.340;2024-01-30T02:28:07;101647.63;;;6.15;55.53
38038;BME280;23843;51.320;12.340;2024-01-30T02:30:33;101640.38;;;6.14;55.71
38038;BME280;23843;51.320;12.340;2024-01-30T02:32:58;101637.84;;;6.13;55.24
38038;BME280;23843;51.320;12.340;2024-01-30T02:35:24;101645.25;;;6.12;56.02
38038;BME280;23843;51.320;12.340;2024-01-30T02:37:49;101642.66;;;6.11;55.14
38038;BME280;23843;51.320;12.340;2024-01-30T02:40:16;101643.84;;;6.08;55.13
38038;BME280;23843;51.320;12.340;2024-01-30T02:42:41;101637.47;;;6.08;55.67
38038;BME280;23843;51.320;12.340;2024-01-30T02:45:08;101644.38;;;6.04;55.97
38038;BME280;23843;51.320;12.340;2024-01-30T02:47:34;101633.69;;;6.01;56.24
38038;BME280;23843;51.320;12.340;2024-01-30T02:49:59;101640.25;;;6.00;55.71
38038;BME280;23843;51.320;12.340;2024-01-30T02:52:25;101638.34;;;6.00;55.43
38038;BME280;23843;51.320;12.340;2024-01-30T02:54:50;101638.72;;;5.97;55.90
38038;BME280;23843;51.320;12.340;2024-01-30T02:57:17;101631.63;;;5.95;55.56
38038;BME280;23843;51.320;12.340;2024-01-30T02:59:42;101643.03;;;5.92;56.09
38038;BME280;23843;51.320;12.340;2024-01-30T03:02:08;101634.94;;;5.90;55.86
38038;BME280;23843;51.320;12.340;2024-01-30T03:04:33;101636.13;;;5.88;55.87
38038;BME280;23843;51.320;12.340;2024-01-30T03:06:59;101625.41;;;5.84;55.41
38038;BME280;23843;51.320;12.340;2024-01-30T03:09:24;101631.97;;;5.83;55.46
38038;BME280;23843;51.320;12.340;2024-01-30T03:11:49;101628.50;;;5.81;56.12
38038;BME280;23843;51.320;12.340;2024-01-30T03:14:16;101636.09;;;5.79;56.27
38038;BME280;23843;51.320;12.340;2024-01-30T03:16:42;101628.84;;;5.78;55.97
38038;BME280;23843;51.320;12.340;2024-01-30T03:19:07;101633.00;;;5.74;56.31
38038;BME280;23843;51.320;12.340;2024-01-30T03:21:33;101630.25;;;5.74;56.33
38038;BME280;23843;51.320;12.340;2024-01-30T03:23:58;101626.09;;;5.70;55.72
38038;BME280;23843;51.320;12.340;2024-01-30T03:26:24;101625.22;;;5.70;55.70
38038;BME280;23843;51.320;12.340;2024-01-30T03:28:49;101619.91;;;5.68;55.77
38038;BME280;23843;51.320;12.340;2024-01-30T03:31:16;101628.19;;;5.68;55.49
38038;BME280;23843;51.320;12.340;2024-01-30T03:33:42;101614.56;;;5.67;56.38
38038;BME280;23843;51.320;12.340;2024-01-30T03:36:08;101624.72;;;5.66;56.14
38038;BME280;23843;51.320;12.340;2024-01-30T03:38:34;101617.50;;;5.65;56.17
38038;BME280;23843;51.320;12.340;2024-01-30T03:40:59;101611.09;;;5.65;56.36
38038;BME280;23843;51.320;12.340;2024-01-30T03:43:25;101614.22;;;5.62;56.20
38038;BME280;23843;51.320;12.340;2024-01-30T03:45:50;101614.41;;;5.60;56.64
38038;BME280;23843;51.320;12.340;2024-01-30T03:48:17;101618.19;;;5.59;56.51
38038;BME280;23843;51.320;12.340;2024-01-30T03:50:42;101614.56;;;5.59;56.42
38038;BME280;23843;51.320;12.340;2024-01-30T03:53:08;101613.00;;;5.56;56.10
38038;BME280;23843;51.320;12.340;2024-01-30T03:55:33;101612.66;;;5.59;56.14
38038;BME280;23843;51.320;12.340;2024-01-30T03:57:58;101605.44;;;5.58;56.45
38038;BME280;23843;51.320;12.340;2024-01-30T04:00:24;101603.69;;;5.57;55.93
38038;BME280;23843;51.320;12.340;2024-01-30T04:02:49;101608.34;;;5.57;56.76
38038;BME280;23843;51.320;12.340;2024-01-30T04:05:16;101608.53;;;5.55;55.99
38038;BME280;23843;51.320;12.340;2024-01-30T04:07:42;101608.34;;;5.57;56.29
38038;BME280;23843;51.320;12.340;2024-01-30T04:10:08;101604.56;;;5.58;56.10
38038;BME280;23843;51.320;12.340;2024-01-30T04:12:33;101608.88;;;5.60;56.11
38038;BME280;23843;51.320;12.340;2024-01-30T04:14:59;101605.44;;;5.58;56.00
38038;BME280;23843;51.320;12.340;2024-01-30T04:17:24;101607.16;;;5.59;56.12
38038;BME280;23843;51.320;12.340;2024-01-30T04:19:50;101610.94;;;5.58;56.62
38038;BME280;23843;51.320;12.340;2024-01-30T04:22:16;101611.81;;;5.59;55.97
38038;BME280;23843;51.320;12.340;2024-01-30T04:24:42;101621.63;;;5.61;56.50
38038;BME280;23843;51.320;12.340;2024-01-30T04:27:07;101617.16;;;5.60;56.44
38038;BME280;23843;51.320;12.340;2024-01-30T04:29:33;101614.41;;;5.60;56.34
38038;BME280;23843;51.320;12.340;2024-01-30T04:31:58;101614.56;;;5.59;55.81
38038;BME280;23843;51.320;12.340;2024-01-30T04:34:23;101601.66;;;5.59;55.85
38038;BME280;23843;51.320;12.340;2024-01-30T04:36:49;101593.38;;;5.59;55.98
38038;BME280;23843;51.320;12.340;2024-01-30T04:39:16;101594.41;;;5.58;56.51
38038;BME280;23843;51.320;12.340;2024-01-30T04:41:41;101594.41;;;5.58;56.03
38038;BME280;23843;51.320;12.340;2024-01-30T04:44:07;101600.63;;;5.60;56.07
38038;BME280;23843;51.320;12.340;2024-01-30T04:46:32;101602.34;;;5.61;56.41
38038;BME280;23843;51.320;12.340;2024-01-30T04:48:58;101596.81;;;5.61;55.92
38038;BME280;23843;51.320;12.340;2024-01-30T04:51:23;101595.09;;;5.60;56.14
38038;BME280;23843;51.320;12.340;2024-01-30T04:53:49;101595.09;;;5.60;55.99
38038;BME280;23843;51.320;12.340;2024-01-30T04:56:16;101595.25;;;5.59;56.26
38038;BME280;23843;51.320;12.340;2024-01-30T04:58:41;101595.25;;;5.59;56.39
38038;BME280;23843;51.320;12.340;2024-01-30T05:01:07;101600.78;;;5.59;56.17
38038;BME280;23843;51.320;12.340;2024-01-30T05:03:33;101603.53;;;5.59;56.16
38038;BME280;23843;51.320;12.340;2024-01-30T05:05:58;101598.19;;;5.57;56.30
38038;BME280;23843;51.320;12.340;2024-01-30T05:08:24;101596.66;;;5.55;56.58
38038;BME280;23843;51.320;12.340;2024-01-30T05:10:49;101602.34;;;5.53;56.37
38038;BME280;23843;51.320;12.340;2024-01-30T05:13:16;101595.97;;;5.53;56.22
38038;BME280;23843;51.320;12.340;2024-01-30T05:15:42;101606.13;;;5.52;56.14
38038;BME280;23843;51.320;12.340;2024-01-30T05:18:07;101601.63;;;5.51;56.57
38038;BME280;23843;51.320;12.340;2024-01-30T05:20:33;101598.88;;;5.51;56.49
38038;BME280;23843;51.320;12.340;2024-01-30T05:22:58;101600.06;;;5.48;56.15
38038;BME280;23843;51.320;12.340;2024-01-30T05:25:24;101610.44;;;5.46;56.49
38038;BME280;23843;51.320;12.340;2024-01-30T05:27:49;101609.72;;;5.44;56.22
38038;BME280;23843;51.320;12.340;2024-01-30T05:30:16;101615.41;;;5.43;56.15
38038;BME280;23843;51.320;12.340;2024-01-30T05:32:42;101615.25;;;5.44;57.04
38038;BME280;23843;51.320;12.340;2024-01-30T05:35:08;101613.50;;;5.43;56.60
38038;BME280;23843;51.320;12.340;2024-01-30T05:37:33;101615.25;;;5.44;56.09
38038;BME280;23843;51.320;12.340;2024-01-30T05:39:59;101605.09;;;5.45;56.25
38038;BME280;23843;51.320;12.340;2024-01-30T05:42:25;101603.34;;;5.44;56.42
38038;BME280;23843;51.320;12.340;2024-01-30T05:44:51;101606.97;;;5.44;56.35
38038;BME280;23843;51.320;12.340;2024-01-30T05:47:17;101591.31;;;5.45;56.39
38038;BME280;23843;51.320;12.340;2024-01-30T05:49:43;101606.81;;;5.46;56.21
38038;BME280;23843;51.320;12.340;2024-01-30T05:52:08;101596.66;;;5.46;56.10
38038;BME280;23843;51.320;12.340;2024-01-30T05:54:34;101601.13;;;5.47;56.01
38038;BME280;23843;51.320;12.340;2024-01-30T05:56:59;101606.44;;;5.49;55.55
38038;BME280;23843;51.320;12.340;2024-01-30T05:59:25;101617.31;;;5.51;56.19
38038;BME280;23843;51.320;12.340;2024-01-30T06:01:50;101609.03;;;5.51;56.26
38038;BME280;23843;51.320;12.340;2024-01-30T06:04:17;101604.72;;;5.48;56.53
38038;BME280;23843;51.320;12.340;2024-01-30T06:06:43;101603.19;;;5.45;56.31
38038;BME280;23843;51.320;12.340;2024-01-30T06:09:08;101610.75;;;5.43;56.15
38038;BME280;23843;51.320;12.340;2024-01-30T06:11:33;101608.00;;;5.43;55.98
38038;BME280;23843;51.320;12.340;2024-01-30T06:13:59;101619.03;;;5.43;56.13
38038;BME280;23843;51.320;12.340;2024-01-30T06:16:24;101603.53;;;5.42;56.30
38038;BME280;23843;51.320;12.340;2024-01-30T06:18:50;101602.66;;;5.42;56.40
38038;BME280;23843;51.320;12.340;2024-01-30T06:21:17;101604.06;;;5.38;56.43
38038;BME280;23843;51.320;12.340;2024-01-30T06:23:42;101606.09;;;5.36;56.24
38038;BME280;23843;51.320;12.340;2024-01-30T06:26:08;101601.47;;;5.36;56.37
38038;BME280;23843;51.320;12.340;2024-01-30T06:28:33;101598.69;;;5.36;55.76
38038;BME280;23843;51.320;12.340;2024-01-30T06:31:00;101602.31;;;5.37;55.83
38038;BME280;23843;51.320;12.340;2024-01-30T06:33:26;101601.28;;;5.38;56.64
38038;BME280;23843;51.320;12.340;2024-01-30T06:35:51;101594.91;;;5.37;56.03
38038;BME280;23843;51.320;12.340;2024-01-30T06:38:18;101606.81;;;5.38;56.15
38038;BME280;23843;51.320;12.340;2024-01-30T06:40:44;101609.41;;;5.39;56.04
38038;BME280;23843;51.320;12.340;2024-01-30T06:43:09;101602.84;;;5.40;56.30
38038;BME280;23843;51.320;12.340;2024-01-30T06:45:38;101602.66;;;5.42;56.27
38038;BME280;23843;51.320;12.340;2024-01-30T06:48:05;101597.69;;;5.45;56.09
38038;BME280;23843;51.320;12.340;2024-01-30T06:50:30;101607.47;;;5.48;56.14
38038;BME280;23843;51.320;12.340;2024-01-30T06:52:56;101605.25;;;5.52;56.40
38038;BME280;23843;51.320;12.340;2024-01-30T06:55:22;101593.22;;;5.53;56.30
38038;BME280;23843;51.320;12.340;2024-01-30T06:57:48;101604.41;;;5.51;56.11
38038;BME280;23843;51.320;12.340;2024-01-30T07:00:15;101602.66;;;5.50;56.38
38038;BME280;23843;51.320;12.340;2024-01-30T07:02:40;101598.72;;;5.53;56.56
38038;BME280;23843;51.320;12.340;2024-01-30T07:05:09;101597.69;;;5.54;56.23
38038;BME280;23843;51.320;12.340;2024-01-30T07:07:35;101597.16;;;5.58;56.17
38038;BME280;23843;51.320;12.340;2024-01-30T07:10:01;101598.72;;;5.61;56.24
38038;BME280;23843;51.320;12.340;2024-01-30T07:12:28;101599.06;;;5.66;56.26
38038;BME280;23843;51.320;12.340;2024-01-30T07:14:55;101601.28;;;5.70;56.20
38038;BME280;23843;51.320;12.340;2024-01-30T07:17:21;101603.53;;;5.75;55.90
38038;BME280;23843;51.320;12.340;2024-01-30T07:19:46;101611.09;;;5.81;56.48
38038;BME280;23843;51.320;12.340;2024-01-30T07:22:12;101607.81;;;5.85;56.05
38038;BME280;23843;51.320;12.340;2024-01-30T07:24:42;101600.81;;;5.91;55.49
38038;BME280;23843;51.320;12.340;2024-01-30T07:27:08;101606.47;;;5.98;56.32
38038;BME280;23843;51.320;12.340;2024-01-30T07:29:35;101597.31;;;6.05;55.54
38038;BME280;23843;51.320;12.340;2024-01-30T07:32:00;101609.38;;;6.12;55.38
38038;BME280;23843;51.320;12.340;2024-01-30T07:34:25;101596.59;;;6.19;55.51
38038;BME280;23843;51.320;12.340;2024-01-30T07:36:51;101593.31;;;6.24;55.89
38038;BME280;23843;51.320;12.340;2024-01-30T07:39:16;101599.66;;;6.33;56.03
38038;BME280;23843;51.320;12.340;2024-01-30T07:41:42;101596.00;;;6.40;55.08
38038;BME280;23843;51.320;12.340;2024-01-30T07:44:07;101591.69;;;6.46;54.92
38038;BME280;23843;51.320;12.340;2024-01-30T07:46:34;101593.53;;;6.53;55.59
38038;BME280;23843;51.320;12.340;2024-01-30T07:48:59;101587.81;;;6.63;55.34
38038;BME280;23843;51.320;12.340;2024-01-30T07:51:25;101588.28;;;6.75;55.15
38038;BME280;23843;51.320;12.340;2024-01-30T07:53:50;101592.50;;;6.93;55.69
38038;BME280;23843;51.320;12.340;2024-01-30T07:56:16;101591.81;;;7.22;54.89
38038;BME280;23843;51.320;12.340;2024-01-30T07:58:41;101580.75;;;7.45;54.64
38038;BME280;23843;51.320;12.340;2024-01-30T08:01:07;101585.69;;;7.72;54.71
38038;BME280;23843;51.320;12.340;2024-01-30T08:03:33;101584.88;;;8.01;54.23
38038;BME280;23843;51.320;12.340;2024-01-30T08:05:59;101582.88;;;8.33;54.80
38038;BME280;23843;51.320;12.340;2024-01-30T08:08:24;101583.69;;;8.63;54.38
38038;BME280;23843;51.320;12.340;2024-01-30T08:10:50;101583.19;;;8.88;54.02
38038;BME280;23843;51.320;12.340;2024-01-30T08:13:15;101580.25;;;9.11;54.07
38038;BME280;23843;51.320;12.340;2024-01-30T08:15:40;101576.38;;;9.27;53.36
38038;BME280;23843;51.320;12.340;2024-01-30T08:18:06;101576.03;;;9.36;53.31
38038;BME280;23843;51.320;12.340;2024-01-30T08:20:33;101571.03;;;9.47;53.34
38038;BME280;23843;51.320;12.340;2024-01-30T08:22:59;101583.38;;;9.65;52.99
38038;BME280;23843;51.320;12.340;2024-01-30T08:25:24;101581.78;;;9.77;53.34
38038;BME280;23843;51.320;12.340;2024-01-30T08:27:50;101578.91;;;9.92;52.94
38038;BME280;23843;51.320;12.340;2024-01-30T08:30:15;101581.13;;;10.03;52.13
38038;BME280;23843;51.320;12.340;2024-01-30T08:32:40;101576.56;;;10.17;53.03
38038;BME280;23843;51.320;12.340;2024-01-30T08:35:06;101578.63;;;10.36;52.90
38038;BME280;23843;51.320;12.340;2024-01-30T08:37:33;101588.59;;;10.59;52.96
38038;BME280;23843;51.320;12.340;2024-01-30T08:39:59;101577.38;;;10.80;52.63
38038;BME280;23843;51.320;12.340;2024-01-30T08:42:24;101582.53;;;10.96;52.93
38038;BME280;23843;51.320;12.340;2024-01-30T08:44:50;101580.91;;;11.15;52.19
38038;BME280;23843;51.320;12.340;2024-01-30T08:47:15;101577.31;;;11.27;52.61
38038;BME280;23843;51.320;12.340;2024-01-30T08:49:41;101580.31;;;11.32;52.01
38038;BME280;23843;51.320;12.340;2024-01-30T08:52:06;101577.97;;;11.36;51.97
38038;BME280;23843;51.320;12.340;2024-01-30T08:54:33;101581.63;;;11.37;51.86
38038;BME280;23843;51.320;12.340;2024-01-30T08:56:58;101577.13;;;11.42;52.02
38038;BME280;23843;51.320;12.340;2024-01-30T08:59:24;101577.59;;;11.52;51.60
38038;BME280;23843;51.320;12.340;2024-01-30T09:01:49;101570.31;;;11.58;51.34
38038;BME280;23843;51.320;12.340;2024-01-30T09:04:15;101569.03;;;11.54;51.49
38038;BME280;23843;51.320;12.340;2024-01-30T09:06:40;101572.22;;;11.51;51.81
38038;BME280;23843;51.320;12.340;2024-01-30T09:09:05;101571.78;;;11.47;51.67
38038;BME280;23843;51.320;12.340;2024-01-30T09:11:32;101573.06;;;11.38;51.63
38038;BME280;23843;51.320;12.340;2024-01-30T09:13:58;101573.47;;;11.35;51.48
38038;BME280;23843;51.320;12.340;2024-01-30T09:16:23;101575.41;;;11.35;51.83
38038;BME280;23843;51.320;12.340;2024-01-30T09:18:49;101576.94;;;11.44;51.93
38038;BME280;23843;51.320;12.340;2024-01-30T09:21:14;101574.56;;;11.47;51.22
38038;BME280;23843;51.320;12.340;2024-01-30T09:23:39;101573.94;;;11.45;50.36
38038;BME280;23843;51.320;12.340;2024-01-30T09:26:05;101568.38;;;11.39;50.67
38038;BME280;23843;51.320;12.340;2024-01-30T09:28:32;101570.06;;;11.40;51.21
38038;BME280;23843;51.320;12.340;2024-01-30T09:30:57;101563.00;;;11.44;51.23
38038;BME280;23843;51.320;12.340;2024-01-30T09:33:23;101564.28;;;11.41;50.31
38038;BME280;23843;51.320;12.340;2024-01-30T09:35:48;101565.56;;;11.32;51.10
38038;BME280;23843;51.320;12.340;2024-01-30T09:38:13;101564.06;;;11.29;51.30
38038;BME280;23843;51.320;12.340;2024-01-30T09:40:39;101566.41;;;11.32;50.99
38038;BME280;23843;51.320;12.340;2024-01-30T09:43:04;101572.00;;;11.39;51.02
38038;BME280;23843;51.320;12.340;2024-01-30T09:45:32;101568.38;;;11.45;51.55
38038;BME280;23843;51.320;12.340;2024-01-30T09:47:59;101565.78;;;11.44;50.40
38038;BME280;23843;51.320;12.340;2024-01-30T09:50:24;101566.66;;;11.44;50.84
38038;BME280;23843;51.320;12.340;2024-01-30T09:52:51;101570.72;;;11.42;50.63
38038;BME280;23843;51.320;12.340;2024-01-30T09:55:17;101569.84;;;11.35;50.95
38038;BME280;23843;51.320;12.340;2024-01-30T09:57:42;101575.84;;;11.31;50.48
38038;BME280;23843;51.320;12.340;2024-01-30T10:00:09;101570.03;;;11.26;51.39
38038;BME280;23843;51.320;12.340;2024-01-30T10:02:36;101567.25;;;11.26;51.38
38038;BME280;23843;51.320;12.340;2024-01-30T10:05:02;101570.69;;;11.28;50.71
38038;BME280;23843;51.320;12.340;2024-01-30T10:07:27;101565.13;;;11.28;50.33
38038;BME280;23843;51.320;12.340;2024-01-30T10:09:53;101569.41;;;11.31;50.77
38038;BME280;23843;51.320;12.340;2024-01-30T10:12:18;101562.78;;;11.32;51.27
38038;BME280;23843;51.320;12.340;2024-01-30T10:14:44;101565.97;;;11.29;50.35
38038;BME280;23843;51.320;12.340;2024-01-30T10:17:10;101566.63;;;11.31;50.90
38038;BME280;23843;51.320;12.340;2024-01-30T10:19:37;101562.16;;;11.37;50.79
38038;BME280;23843;51.320;12.340;2024-01-30T10:22:03;101556.78;;;11.35;50.83
38038;BME280;23843;51.320;12.340;2024-01-30T10:24:29;101556.13;;;11.40;50.64
38038;BME280;23843;51.320;12.340;2024-01-30T10:26:55;101552.53;;;11.46;50.78
38038;BME280;23843;51.320;12.340;2024-01-30T10:29:20;101546.78;;;11.54;51.09
38038;BME280;23843;51.320;12.340;2024-01-30T10:31:46;101548.44;;;11.55;50.59
38038;BME280;23843;51.320;12.340;2024-01-30T10:34:11;101541.81;;;11.56;50.57
38038;BME280;23843;51.320;12.340;2024-01-30T10:36:40;101540.75;;;11.57;50.55
38038;BME280;23843;51.320;12.340;2024-01-30T10:39:06;101542.91;;;11.61;50.75
38038;BME280;23843;51.320;12.340;2024-01-30T10:41:37;101531.56;;;11.63;50.80
38038;BME280;23843;51.320;12.340;2024-01-30T10:44:08;101532.00;;;11.66;51.30
38038;BME280;23843;51.320;12.340;2024-01-30T10:46:35;101524.72;;;11.72;51.01
38038;BME280;23843;51.320;12.340;2024-01-30T10:49:04;101526.03;;;11.76;51.10
38038;BME280;23843;51.320;12.340;2024-01-30T10:51:31;101518.09;;;11.80;51.15
38038;BME280;23843;51.320;12.340;2024-01-30T10:53:58;101516.38;;;11.85;51.41
38038;BME280;23843;51.320;12.340;2024-01-30T10:56:25;101518.28;;;11.91;50.69
38038;BME280;23843;51.320;12.340;2024-01-30T10:58:51;101513.38;;;11.93;50.44
38038;BME280;23843;51.320;12.340;2024-01-30T11:01:17;101518.72;;;11.95;50.92
38038;BME280;23843;51.320;12.340;2024-01-30T11:03:43;101521.94;;;11.98;50.82
38038;BME280;23843;51.320;12.340;2024-01-30T11:06:10;101525.16;;;12.02;50.34
38038;BME280;23843;51.320;12.340;2024-01-30T11:08:36;101519.56;;;12.02;50.49
38038;BME280;23843;51.320;12.340;2024-01-30T11:11:08;101525.13;;;12.08;51.04
38038;BME280;23843;51.320;12.340;2024-01-30T11:13:34;101526.19;;;12.14;50.33
38038;BME280;23843;51.320;12.340;2024-01-30T11:16:00;101511.66;;;12.12;50.75
38038;BME280;23843;51.320;12.340;2024-01-30T11:18:29;101506.47;;;12.16;50.92
38038;BME280;23843;51.320;12.340;2024-01-30T11:20:56;101511.16;;;12.22;50.89
38038;BME280;23843;51.320;12.340;2024-01-30T11:23:22;101512.00;;;12.29;51.09
38038;BME280;23843;51.320;12.340;2024-01-30T11:25:47;101508.13;;;12.36;50.83
38038;BME280;23843;51.320;12.340;2024-01-30T11:28:15;101503.84;;;12.40;50.94
38038;BME280;23843;51.320;12.340;2024-01-30T11:30:41;101503.19;;;12.45;50.65
38038;BME280;23843;51.320;12.340;2024-01-30T11:33:07;101507.88;;;12.51;50.84
38038;BME280;23843;51.320;12.340;2024-01-30T11:35:34;101498.66;;;12.51;50.73
38038;BME280;23843;51.320;12.340;2024-01-30T11:38:00;101499.50;;;12.51;50.55
38038;BME280;23843;51.320;12.340;2024-01-30T11:40:27;101500.78;;;12.55;51.11
38038;BME280;23843;51.320;12.340;2024-01-30T11:42:53;101505.06;;;12.58;50.98
38038;BME280;23843;51.320;12.340;2024-01-30T11:45:21;101496.50;;;12.53;50.08
38038;BME280;23843;51.320;12.340;2024-01-30T11:47:46;101499.50;;;12.51;50.03
38038;BME280;23843;51.320;12.340;2024-01-30T11:50:12;101490.97;;;12.46;50.34
38038;BME280;23843;51.320;12.340;2024-01-30T11:52:38;101490.53;;;12.42;50.52
38038;BME280;23843;51.320;12.340;2024-01-30T11:55:04;101489.47;;;12.43;50.57
38038;BME280;23843;51.320;12.340;2024-01-30T11:57:30;101478.28;;;12.50;50.51
38038;BME280;23843;51.320;12.340;2024-01-30T11:59:55;101483.59;;;12.58;50.58
38038;BME280;23843;51.320;12.340;2024-01-30T12:02:22;101475.00;;;12.66;50.61
38038;BME280;23843;51.320;12.340;2024-01-30T12:04:48;101472.59;;;12.76;50.83
38038;BME280;23843;51.320;12.340;2024-01-30T12:07:13;101462.06;;;12.85;50.57
38038;BME280;23843;51.320;12.340;2024-01-30T12:09:39;101465.19;;;12.95;50.59
38038;BME280;23843;51.320;12.340;2024-01-30T12:12:07;101463.22;;;13.02;50.61
38038;BME280;23843;51.320;12.340;2024-01-30T12:14:32;101468.75;;;13.09;50.80
38038;BME280;23843;51.320;12.340;2024-01-30T12:16:58;101467.66;;;13.16;50.74
38038;BME280;23843;51.320;12.340;2024-01-30T12:19:25;101470.66;;;13.21;50.94
38038;BME280;23843;51.320;12.340;2024-01-30T12:21:54;101469.31;;;13.24;50.75
38038;BME280;23843;51.320;12.340;2024-01-30T12:24:19;101462.66;;;13.25;50.75
38038;BME280;23843;51.320;12.340;2024-01-30T12:26:45;101466.53;;;13.24;51.02
38038;BME280;23843;51.320;12.340;2024-01-30T12:29:10;101453.66;;;13.23;50.95
38038;BME280;23843;51.320;12.340;2024-01-30T12:31:36;101457.06;;;13.25;50.78
38038;BME280;23843;51.320;12.340;2024-01-30T12:34:01;101460.28;;;13.29;50.88
38038;BME280;23843;51.320;12.340;2024-01-30T12:36:28;101448.88;;;13.30;50.97
38038;BME280;23843;51.320;12.340;2024-01-30T12:38:54;101438.34;;;13.32;50.92
38038;BME280;23843;51.320;12.340;2024-01-30T12:41:20;101432.94;;;13.37;50.86